Time;durP1;ratioP1;P1;durP2;ratioP2;P2;SDS_P1;SDS_P2;PMS_P1;PMS_P2;Temp;Humidity;BMP_temperature;BMP_pressure;BME280_temperature;BME280_humidity;BME280_pressure;Samples;Min_cycle;Max_cycle;Signal;HPM_P1;HPM_P2
2022/12/05 00:01:41;;;;;;;49.13;24.10;;;;;;;1.16;100.00;101153.75;5044012;28;20047;-73
2022/12/05 00:04:14;;;;;;;48.35;22.90;;;;;;;1.15;100.00;101158.06;5046219;28;20541;-74
2022/12/05 00:06:42;;;;;;;42.78;21.40;;;;;;;1.17;100.00;101152.94;5046284;28;20050;-73
2022/12/05 00:09:13;;;;;;;47.20;21.58;;;;;;;1.20;100.00;101160.81;5045887;28;20125;-73
2022/12/05 00:11:42;;;;;;;38.85;20.48;;;;;;;1.20;100.00;101155.66;5036387;28;20048;-74
2022/12/05 00:14:09;;;;;;;43.22;22.50;;;;;;;1.19;100.00;101155.59;5041496;28;20047;-75
2022/12/05 00:16:39;;;;;;;44.33;21.48;;;;;;;1.20;100.00;101157.34;5047641;28;20033;-76
2022/12/05 00:19:08;;;;;;;44.60;21.10;;;;;;;1.20;100.00;101147.94;5050610;28;20056;-72
2022/12/05 00:21:36;;;;;;;37.20;18.98;;;;;;;1.21;100.00;101148.78;5042717;28;20093;-73
2022/12/05 00:24:06;;;;;;;39.90;19.88;;;;;;;1.23;100.00;101145.44;5042696;28;20044;-73
2022/12/05 00:26:33;;;;;;;39.33;20.27;;;;;;;1.24;100.00;101143.75;5059227;28;20067;-74
2022/12/05 00:29:00;;;;;;;42.83;21.02;;;;;;;1.21;100.00;101144.50;5046016;28;20069;-74
2022/12/05 00:31:28;;;;;;;44.65;22.35;;;;;;;1.21;100.00;101144.50;5046399;28;20048;-73
2022/12/05 00:33:55;;;;;;;39.08;19.55;;;;;;;1.21;100.00;101136.75;5025748;28;20122;-74
2022/12/05 00:36:26;;;;;;;42.25;20.65;;;;;;;1.22;100.00;101145.41;5045832;28;20127;-75
2022/12/05 00:38:53;;;;;;;40.05;20.13;;;;;;;1.22;100.00;101143.69;5057423;28;20037;-75
2022/12/05 00:41:24;;;;;;;38.92;20.13;;;;;;;1.21;100.00;101141.91;5045722;28;20460;-74
2022/12/05 00:43:51;;;;;;;39.92;20.30;;;;;;;1.22;100.00;101140.25;5042918;28;20667;-76
2022/12/05 00:46:25;;;;;;;38.80;20.48;;;;;;;1.22;100.00;101141.09;5046399;28;20052;-73
2022/12/05 00:48:56;;;;;;;40.38;20.75;;;;;;;1.22;100.00;101142.81;5047237;28;20713;-75
2022/12/05 00:51:36;;;;;;;43.75;20.23;;;;;;;1.24;100.00;101143.75;5045813;28;20052;-73
2022/12/05 00:54:07;;;;;;;40.40;18.75;;;;;;;1.24;100.00;101146.31;5041709;28;20493;-74
2022/12/05 00:56:34;;;;;;;47.20;21.88;;;;;;;1.26;100.00;101144.69;5046478;28;20130;-74
2022/12/05 00:59:02;;;;;;;38.47;20.75;;;;;;;1.24;100.00;101141.16;5069964;28;20044;-74
2022/12/05 01:01:42;;;;;;;39.05;20.35;;;;;;;1.26;100.00;101144.69;5042375;28;20133;-78
2022/12/05 01:04:22;;;;;;;37.33;20.67;;;;;;;1.25;100.00;101145.50;5066277;28;20032;-73
2022/12/05 01:06:49;;;;;;;39.38;20.02;;;;;;;1.26;100.00;101149.84;5042403;28;20046;-73
2022/12/05 01:09:20;;;;;;;34.15;18.40;;;;;;;1.24;100.00;101143.75;5053026;28;20059;-73
2022/12/05 01:11:47;;;;;;;38.63;19.08;;;;;;;1.25;100.00;101146.41;5045346;28;20135;-75
2022/12/05 01:14:18;;;;;;;38.05;17.92;;;;;;;1.25;100.00;101146.41;5065826;28;20798;-73
2022/12/05 01:16:47;;;;;;;36.60;18.70;;;;;;;1.26;100.00;101142.09;5065843;28;20619;-75
2022/12/05 01:19:26;;;;;;;42.73;20.43;;;;;;;1.27;100.00;101141.28;5047269;28;20102;-72
2022/12/05 01:21:53;;;;;;;35.72;18.00;;;;;;;1.26;100.00;101145.56;5047981;28;20538;-75
2022/12/05 01:24:22;;;;;;;41.00;19.50;;;;;;;1.27;100.00;101149.03;5042450;28;20490;-78
2022/12/05 01:26:49;;;;;;;40.80;20.95;;;;;;;1.26;100.00;101142.09;5065507;28;20041;-74
2022/12/05 01:29:20;;;;;;;38.83;20.45;;;;;;;1.25;100.00;101142.91;5065350;28;20068;-74
2022/12/05 01:31:47;;;;;;;38.45;19.88;;;;;;;1.25;100.00;101142.91;5042907;28;20037;-76
2022/12/05 01:34:17;;;;;;;36.20;18.23;;;;;;;1.24;100.00;101139.47;5043939;28;20047;-75
2022/12/05 01:36:44;;;;;;;33.97;16.58;;;;;;;1.23;100.00;101142.88;5042801;28;20032;-72
2022/12/05 01:39:12;;;;;;;35.30;19.27;;;;;;;1.23;100.00;101139.44;5044685;28;20762;-74
2022/12/05 01:41:48;;;;;;;37.45;18.25;;;;;;;1.27;100.00;101137.00;5063521;28;20123;-74
2022/12/05 01:44:14;;;;;;;29.67;16.38;;;;;;;1.26;100.00;101131.78;5058438;28;20129;-73
2022/12/05 01:46:48;;;;;;;29.23;16.35;;;;;;;1.27;100.00;101131.84;5063243;28;20054;-73
2022/12/05 01:49:27;;;;;;;;;;;;;;;1.27;100.00;101136.13;5031008;28;20048;-77
2022/12/05 01:52:19;;;;;;;30.38;16.55;;;;;;;1.28;100.00;101135.31;5064423;28;20007;-74
2022/12/05 01:54:48;;;;;;;40.15;20.23;;;;;;;1.28;100.00;101135.31;5044841;28;20048;-74
2022/12/05 01:57:15;;;;;;;34.10;17.58;;;;;;;1.28;100.00;101131.03;5030709;28;20469;-73
2022/12/05 01:59:51;;;;;;;32.58;17.55;;;;;;;1.28;100.00;101136.19;5047340;28;20109;-76
2022/12/05 02:02:19;;;;;;;34.47;17.45;;;;;;;1.27;100.00;101138.72;5042697;28;20053;-73
2022/12/05 02:05:08;;;;;;;38.17;18.92;;;;;;;1.26;100.00;101136.94;5042359;28;20047;-75
2022/12/05 02:07:39;;;;;;;31.15;16.63;;;;;;;1.26;100.00;101131.78;5033264;28;20036;-74
2022/12/05 02:10:07;;;;;;;28.73;15.52;;;;;;;1.26;100.00;101130.06;5043493;28;20056;-75
2022/12/05 02:12:34;;;;;;;33.45;15.95;;;;;;;1.25;100.00;101127.44;5058495;28;20048;-75
2022/12/05 02:15:22;;;;;;;31.95;16.80;;;;;;;1.27;100.00;101130.97;5042282;28;20135;-74
2022/12/05 02:18:06;;;;;;;34.30;16.52;;;;;;;1.25;100.00;101140.34;5061752;28;20036;-75
2022/12/05 02:20:43;;;;;;;;;;;;;;;1.24;100.00;101131.75;5064010;28;20044;-73
2022/12/05 02:23:37;;;;;;;34.22;16.65;;;;;;;1.24;100.00;101133.41;5059106;28;19932;-75
2022/12/05 02:26:28;;;;;;;29.92;15.77;;;;;;;1.25;100.00;101128.34;5069753;28;20052;-74
2022/12/05 02:29:58;;;;;;;32.55;14.85;;;;;;;1.26;100.00;101131.78;5051822;28;20071;-74
2022/12/05 02:33:08;;;;;;;31.23;17.35;;;;;;;1.28;100.00;101132.75;5044065;28;20844;-73
2022/12/05 02:36:16;;;;;;;32.88;16.02;;;;;;;1.28;100.00;101125.00;5053158;28;20066;-73
2022/12/05 02:39:12;;;;;;;33.97;16.23;;;;;;;1.29;100.00;101132.78;5051220;28;20317;-74
2022/12/05 02:41:56;;;;;;;35.22;17.90;;;;;;;1.28;100.00;101119.84;5050081;28;20060;-73
2022/12/05 02:44:31;;;;;;;25.95;13.07;;;;;;;1.28;100.00;101127.59;5048620;28;20048;-75
2022/12/05 02:47:00;;;;;;;27.88;15.82;;;;;;;1.29;100.00;101113.84;5051744;28;20051;-74
2022/12/05 02:49:33;;;;;;;30.50;15.70;;;;;;;1.29;100.00;101117.31;5050998;28;20247;-75
2022/12/05 02:52:04;;;;;;;31.92;15.88;;;;;;;1.29;100.00;101122.47;5032021;28;20048;-77
2022/12/05 02:54:37;;;;;;;31.42;16.02;;;;;;;1.29;100.00;101116.41;5048163;28;20040;-76
2022/12/05 03:09:05;;;;;;;30.20;14.32;;;;;;;1.30;100.00;101115.59;4915366;29;20102;-74
2022/12/05 03:12:41;;;;;;;27.13;15.02;;;;;;;1.32;100.00;101111.38;4902851;28;20169;-76
2022/12/05 03:16:13;;;;;;;25.50;14.20;;;;;;;1.30;100.00;101113.91;4948553;28;20262;-76
2022/12/05 03:19:54;;;;;;;30.48;14.10;;;;;;;1.30;100.00;101119.06;5002662;28;20049;-76
2022/12/05 03:22:30;;;;;;;23.10;13.38;;;;;;;1.30;100.00;101119.06;4989462;28;20062;-74
2022/12/05 03:25:00;;;;;;;26.00;14.63;;;;;;;1.30;100.00;101119.06;5035667;28;20079;-75
2022/12/05 03:27:37;;;;;;;22.20;13.27;;;;;;;1.32;100.00;101121.72;5053597;28;20063;-74
2022/12/05 03:30:11;;;;;;;25.65;14.90;;;;;;;1.31;100.00;101120.81;5071862;28;20056;-74
2022/12/05 03:32:49;;;;;;;22.35;11.07;;;;;;;1.30;100.00;101126.81;5050522;28;20473;-75
2022/12/05 03:35:44;;;;;;;23.00;12.65;;;;;;;1.30;100.00;101126.81;5048557;28;20061;-74
2022/12/05 03:38:23;;;;;;;24.02;12.73;;;;;;;1.29;100.00;101119.91;5052935;28;20048;-74
2022/12/05 03:41:00;;;;;;;26.20;14.38;;;;;;;1.30;100.00;101128.50;5036006;28;20710;-76
2022/12/05 03:43:48;;;;;;;23.83;14.13;;;;;;;1.29;100.00;101121.56;5056956;28;20644;-75
2022/12/05 03:46:29;;;;;;;23.73;14.48;;;;;;;1.31;100.00;101122.53;5060982;28;20040;-75
2022/12/05 03:49:09;;;;;;;29.25;14.05;;;;;;;1.31;100.00;101125.09;5074160;28;20048;-74
2022/12/05 03:52:01;;;;;;;23.83;13.13;;;;;;;1.30;100.00;101126.81;5063483;28;20044;-75
2022/12/05 03:54:35;;;;;;;20.92;13.27;;;;;;;1.33;100.00;101120.88;5079327;28;20044;-76
2022/12/05 03:57:18;;;;;;;20.50;12.50;;;;;;;1.31;100.00;101122.53;5053931;28;20051;-74
2022/12/05 03:59:55;;;;;;;20.92;12.43;;;;;;;1.34;100.00;101114.00;5058608;28;20051;-75
2022/12/05 04:02:32;;;;;;;24.85;13.32;;;;;;;1.32;100.00;101122.56;5058557;28;20079;-78
2022/12/05 04:05:08;;;;;;;23.75;12.40;;;;;;;1.34;100.00;101121.75;5046980;28;20079;-76
2022/12/05 04:07:39;;;;;;;19.55;12.35;;;;;;;1.34;100.00;101117.47;5063711;28;20029;-75
2022/12/05 04:10:13;;;;;;;22.95;12.55;;;;;;;1.35;100.00;101123.53;5084934;28;20049;-73
2022/12/05 04:12:43;;;;;;;19.48;11.73;;;;;;;1.37;100.00;101117.59;5059964;28;20082;-75
2022/12/05 04:15:19;;;;;;;19.10;11.85;;;;;;;1.37;100.00;101114.13;5061159;28;20475;-74
2022/12/05 04:17:59;;;;;;;23.45;12.75;;;;;;;1.37;100.00;101112.44;5040997;28;20053;-73
2022/12/05 04:23:20;;;;;;;18.90;10.98;;;;;;;1.39;100.00;101109.91;5030304;28;20036;-74
2022/12/05 04:26:03;;;;;;;21.95;13.35;;;;;;;1.37;100.00;101107.28;5048569;28;20522;-73
2022/12/05 04:29:06;;;;;;;17.92;10.55;;;;;;;1.38;100.00;101114.16;5050486;28;20116;-75
2022/12/05 04:31:40;;;;;;;22.08;11.80;;;;;;;1.39;100.00;101109.91;5045361;28;20043;-74
2022/12/05 04:34:11;;;;;;;23.48;12.02;;;;;;;1.37;100.00;101107.28;5046421;28;20049;-73
2022/12/05 04:37:00;;;;;;;19.08;12.32;;;;;;;1.40;100.00;101109.09;5051067;28;20119;-73
2022/12/05 04:40:06;;;;;;;18.65;10.70;;;;;;;1.40;100.00;101103.94;5037710;28;20410;-73
2022/12/05 04:42:35;;;;;;;18.73;11.20;;;;;;;1.38;100.00;101106.44;5012395;28;20134;-73
2022/12/05 04:45:06;;;;;;;17.70;11.07;;;;;;;1.39;100.00;101107.31;5050463;28;20134;-74
2022/12/05 04:47:43;;;;;;;18.02;11.43;;;;;;;1.38;100.00;101103.84;5047406;28;20033;-75
2022/12/05 04:50:13;;;;;;;19.42;12.48;;;;;;;1.40;100.00;101102.22;5049143;28;20036;-75
2022/12/05 04:52:40;;;;;;;18.17;10.10;;;;;;;1.41;100.00;101105.66;5046801;28;20056;-74
2022/12/05 04:55:14;;;;;;;23.08;13.77;;;;;;;1.41;100.00;101105.66;5051380;28;20055;-72
2022/12/05 04:57:52;;;;;;;19.00;10.82;;;;;;;1.39;100.00;101097.88;5050460;28;20062;-73
2022/12/05 05:00:19;;;;;;;18.33;12.68;;;;;;;1.40;100.00;101102.22;5048361;28;20055;-75
2022/12/05 05:03:05;;;;;;;20.48;13.55;;;;;;;1.40;100.00;101106.50;5064297;28;20041;-74
2022/12/05 05:05:35;;;;;;;20.25;11.98;;;;;;;1.39;100.00;101097.88;5044930;28;20052;-74
2022/12/05 05:08:01;;;;;;;22.92;11.63;;;;;;;1.41;100.00;101103.97;5047173;28;20029;-76
2022/12/05 05:10:38;;;;;;;20.88;10.75;;;;;;;1.40;100.00;101104.78;5046770;28;20152;-73
2022/12/05 05:13:04;;;;;;;20.80;11.45;;;;;;;1.41;100.00;101108.25;5042820;28;20074;-76
2022/12/05 05:15:31;;;;;;;18.80;11.35;;;;;;;1.41;100.00;101106.56;5050793;28;20052;-73
2022/12/05 05:17:57;;;;;;;17.58;10.23;;;;;;;1.42;100.00;101107.41;5049055;28;21546;-75
2022/12/05 05:20:25;;;;;;;22.35;9.95;;;;;;;1.41;100.00;101108.25;5068603;28;22025;-74
2022/12/05 05:22:56;;;;;;;20.52;10.35;;;;;;;1.42;100.00;101108.31;5043452;28;20052;-76
2022/12/05 05:25:24;;;;;;;21.13;10.90;;;;;;;1.43;100.00;101112.63;5049196;28;20091;-75
2022/12/05 05:27:52;;;;;;;22.30;11.25;;;;;;;1.44;100.00;101116.97;5051170;28;20493;-73
2022/12/05 05:30:21;;;;;;;20.70;12.15;;;;;;;1.42;100.00;101113.47;5066925;28;20044;-74
2022/12/05 05:32:48;;;;;;;20.58;11.02;;;;;;;1.41;100.00;101114.28;5036427;28;20064;-74
2022/12/05 05:35:15;;;;;;;23.02;12.07;;;;;;;1.39;100.00;101109.91;5038134;28;20141;-74
2022/12/05 05:37:42;;;;;;;23.25;11.70;;;;;;;1.39;100.00;101115.06;5048429;28;20045;-73
2022/12/05 05:40:12;;;;;;;22.42;10.30;;;;;;;1.38;100.00;101114.16;5027117;28;20045;-72
2022/12/05 05:42:49;;;;;;;19.08;11.02;;;;;;;1.35;100.00;101108.91;5049000;28;20136;-76
2022/12/05 05:45:16;;;;;;;19.08;10.50;;;;;;;1.32;100.00;101107.09;5074116;28;20068;-74
2022/12/05 05:47:43;;;;;;;23.70;11.38;;;;;;;1.33;100.00;101118.31;5052164;28;20040;-75
2022/12/05 05:50:11;;;;;;;18.63;9.88;;;;;;;1.33;100.00;101115.72;5066813;28;20475;-74
2022/12/05 05:52:38;;;;;;;19.77;11.07;;;;;;;1.33;100.00;101123.47;5047389;28;20475;-74
2022/12/05 05:55:07;;;;;;;20.60;11.45;;;;;;;1.32;100.00;101121.72;5064924;28;20066;-79
2022/12/05 05:57:34;;;;;;;16.50;10.10;;;;;;;1.31;100.00;101125.97;5044601;28;20041;-75
2022/12/05 06:00:01;;;;;;;22.42;10.82;;;;;;;1.32;100.00;101125.16;5047799;28;20048;-74
2022/12/05 06:02:33;;;;;;;21.45;11.25;;;;;;;1.34;100.00;101121.75;5064668;28;20435;-75
2022/12/05 06:05:00;;;;;;;20.50;10.82;;;;;;;1.35;100.00;101120.94;5050746;28;20475;-75
2022/12/05 06:07:28;;;;;;;16.88;9.10;;;;;;;1.33;100.00;101123.47;5049196;28;20131;-75
2022/12/05 06:09:55;;;;;;;18.73;10.07;;;;;;;1.31;100.00;101117.38;5069292;28;20045;-75
2022/12/05 06:12:22;;;;;;;15.18;9.70;;;;;;;1.29;100.00;101119.00;5043325;28;20036;-77
2022/12/05 06:14:49;;;;;;;19.67;11.13;;;;;;;1.26;100.00;101122.34;5047488;28;20866;-76
2022/12/05 06:17:16;;;;;;;13.27;8.35;;;;;;;1.25;100.00;101115.44;5037493;28;20509;-74
2022/12/05 06:19:43;;;;;;;20.70;11.27;;;;;;;1.25;100.00;101119.72;5046272;28;20040;-74
2022/12/05 06:22:09;;;;;;;14.85;8.88;;;;;;;1.24;100.00;101120.53;5044680;28;20170;-74
2022/12/05 06:24:36;;;;;;;60.97;31.92;;;;;;;1.24;100.00;101120.53;5066207;28;20372;-74
2022/12/05 06:27:02;;;;;;;18.02;11.45;;;;;;;1.24;100.00;101113.69;5065786;28;20235;-76
2022/12/05 06:29:29;;;;;;;21.00;11.27;;;;;;;1.23;100.00;101123.97;5047965;28;20041;-76
2022/12/05 06:31:55;;;;;;;16.88;9.80;;;;;;;1.23;100.00;101121.38;5041760;28;20041;-75
2022/12/05 06:34:23;;;;;;;23.58;12.32;;;;;;;1.23;100.00;101119.66;5061563;28;20037;-75
2022/12/05 06:36:49;;;;;;;25.15;14.35;;;;;;;1.26;100.00;101124.06;5068790;28;20048;-76
2022/12/05 06:39:16;;;;;;;14.60;10.55;;;;;;;1.25;100.00;101122.28;5049489;28;20048;-75
2022/12/05 06:41:43;;;;;;;15.52;8.88;;;;;;;1.24;100.00;101124.00;5049194;28;20044;-78
2022/12/05 06:44:10;;;;;;;15.93;9.57;;;;;;;1.24;100.00;101123.09;5043804;28;20473;-75
2022/12/05 06:46:39;;;;;;;14.73;8.85;;;;;;;1.22;100.00;101120.47;5042180;28;20760;-75
2022/12/05 06:49:25;;;;;;;18.70;8.75;;;;;;;1.22;100.00;101130.78;5066436;28;20051;-75
2022/12/05 06:52:01;;;;;;;14.98;9.18;;;;;;;1.22;100.00;101140.25;5062351;28;20404;-73
2022/12/05 06:54:31;;;;;;;12.57;8.15;;;;;;;1.19;100.00;101137.53;5026821;28;20032;-75
2022/12/05 06:56:57;;;;;;;13.82;8.60;;;;;;;1.19;100.00;101137.53;5044479;28;20044;-74
2022/12/05 06:59:24;;;;;;;12.43;8.77;;;;;;;1.20;100.00;101140.19;5049582;28;20849;-73
2022/12/05 07:01:50;;;;;;;14.80;9.73;;;;;;;1.21;100.00;101146.22;5045980;28;20048;-74
2022/12/05 07:04:23;;;;;;;23.42;13.75;;;;;;;1.21;100.00;101146.22;5047193;28;20054;-73
2022/12/05 07:06:50;;;;;;;15.65;9.60;;;;;;;1.19;100.00;101141.00;5040644;28;20086;-75
2022/12/05 07:09:19;;;;;;;13.30;9.73;;;;;;;1.19;100.00;101142.69;5052088;28;20048;-75
2022/12/05 07:11:50;;;;;;;13.07;8.40;;;;;;;1.18;100.00;101141.81;5049058;28;20048;-75
2022/12/05 07:14:17;;;;;;;14.27;9.30;;;;;;;1.17;100.00;101136.63;5049025;28;20115;-75
2022/12/05 07:16:44;;;;;;;15.77;8.98;;;;;;;1.15;100.00;101144.28;5050071;28;20068;-75
2022/12/05 07:19:11;;;;;;;31.00;17.05;;;;;;;1.17;100.00;101146.94;5053471;28;20474;-74
2022/12/05 07:21:37;;;;;;;14.07;9.10;;;;;;;1.16;100.00;101146.03;5050428;28;20407;-74
2022/12/05 07:24:04;;;;;;;14.68;9.05;;;;;;;1.15;100.00;101152.03;5048861;28;20049;-73
2022/12/05 07:26:30;;;;;;;12.93;8.02;;;;;;;1.16;100.00;101153.75;5068718;28;20087;-73
2022/12/05 07:28:57;;;;;;;12.40;7.30;;;;;;;1.15;100.00;101152.91;5051619;28;20631;-73
2022/12/05 07:31:25;;;;;;;9.98;7.10;;;;;;;1.15;100.00;101152.03;5047166;28;20044;-74
2022/12/05 07:33:52;;;;;;;10.05;7.32;;;;;;;1.14;100.00;101161.44;5050626;28;20091;-75
2022/12/05 07:36:22;;;;;;;14.25;8.27;;;;;;;1.14;100.00;101155.44;5073489;28;20045;-72
2022/12/05 07:38:48;;;;;;;13.73;8.05;;;;;;;1.12;100.00;101152.78;5051026;28;20484;-73
2022/12/05 07:41:28;;;;;;;13.23;8.27;;;;;;;1.12;100.00;101150.22;5035510;28;20143;-75
2022/12/05 07:43:59;;;;;;;12.32;7.93;;;;;;;1.12;100.00;101162.22;5047434;28;20045;-75
2022/12/05 07:46:28;;;;;;;15.10;9.02;;;;;;;1.13;100.00;101162.31;5048245;28;20550;-74
2022/12/05 07:48:55;;;;;;;12.55;7.35;;;;;;;1.14;100.00;101160.59;5050622;28;20116;-74
2022/12/05 07:51:28;;;;;;;10.02;7.60;;;;;;;1.14;100.00;101158.00;5053271;28;20403;-74
2022/12/05 07:53:54;;;;;;;11.77;8.02;;;;;;;1.15;100.00;101159.78;5031684;28;20561;-74
2022/12/05 07:56:21;;;;;;;14.95;8.38;;;;;;;1.15;100.00;101159.78;5070969;28;20036;-75
2022/12/05 07:58:51;;;;;;;13.10;7.53;;;;;;;1.20;100.00;101158.25;5071915;28;20115;-75
2022/12/05 08:01:23;;;;;;;13.68;8.95;;;;;;;1.22;100.00;101160.88;5049651;28;20074;-75
2022/12/05 08:03:52;;;;;;;12.77;8.02;;;;;;;1.22;100.00;101166.03;5031997;28;20048;-75
2022/12/05 08:06:27;;;;;;;12.95;7.10;;;;;;;1.21;100.00;101166.84;5050338;28;20048;-75
2022/12/05 08:08:54;;;;;;;13.50;7.80;;;;;;;1.20;100.00;101170.25;5033822;28;20098;-75
2022/12/05 08:11:39;;;;;;;11.18;7.65;;;;;;;1.19;100.00;101169.38;5049490;28;20787;-76
2022/12/05 08:14:08;;;;;;;10.80;8.23;;;;;;;1.21;100.00;101169.44;5048599;28;20581;-75
2022/12/05 08:16:37;;;;;;;10.98;7.57;;;;;;;1.20;100.00;101168.56;5048603;28;20364;-74
2022/12/05 08:19:07;;;;;;;16.90;9.43;;;;;;;1.19;100.00;101164.22;5067554;28;20719;-75
2022/12/05 08:21:35;;;;;;;12.07;8.40;;;;;;;1.22;100.00;101168.63;5050747;28;20502;-75
2022/12/05 08:24:06;;;;;;;12.13;7.10;;;;;;;1.22;100.00;101164.31;5046388;28;20144;-74
2022/12/05 08:26:35;;;;;;;13.00;7.45;;;;;;;1.23;100.00;101165.22;5050763;28;20068;-76
2022/12/05 08:29:09;;;;;;;13.38;8.77;;;;;;;1.23;100.00;101172.94;5042827;28;20040;-74
2022/12/05 08:31:45;;;;;;;13.77;8.20;;;;;;;1.24;100.00;101169.53;5052485;28;20046;-76
2022/12/05 08:34:16;;;;;;;10.10;7.35;;;;;;;1.26;100.00;101170.47;5049214;28;20437;-73
2022/12/05 08:36:43;;;;;;;9.25;6.95;;;;;;;1.26;100.00;101168.75;5033286;28;20124;-75
2022/12/05 08:39:14;;;;;;;10.55;7.60;;;;;;;1.28;100.00;101180.03;5051887;28;20040;-73
2022/12/05 08:41:45;;;;;;;11.63;7.50;;;;;;;1.30;100.00;101174.94;5049483;28;20090;-73
2022/12/05 08:44:15;;;;;;;14.75;8.20;;;;;;;1.32;100.00;101178.44;5049661;28;20102;-73
2022/12/05 08:46:45;;;;;;;13.60;8.35;;;;;;;1.31;100.00;101182.72;5043855;28;20053;-75
2022/12/05 08:49:22;;;;;;;13.80;8.90;;;;;;;1.35;100.00;101182.84;5044205;28;20082;-75
2022/12/05 08:51:53;;;;;;;11.93;7.10;;;;;;;1.36;100.00;101185.47;5046349;28;20475;-75
2022/12/05 08:54:31;;;;;;;8.45;6.50;;;;;;;1.35;100.00;101178.56;5045493;28;20103;-75
2022/12/05 08:57:00;;;;;;;11.73;7.85;;;;;;;1.33;100.00;101182.81;5066348;28;20056;-75
2022/12/05 08:59:30;;;;;;;9.65;6.55;;;;;;;1.32;100.00;101179.31;5047022;28;20029;-75
2022/12/05 09:01:57;;;;;;;9.05;7.00;;;;;;;1.31;100.00;101180.13;5047635;28;20498;-74
2022/12/05 09:04:24;;;;;;;11.98;7.32;;;;;;;1.32;100.00;101186.19;5049135;28;20154;-74
2022/12/05 09:06:51;;;;;;;21.40;13.43;;;;;;;1.34;100.00;101181.94;5051863;28;20048;-74
2022/12/05 09:09:22;;;;;;;15.57;8.85;;;;;;;1.37;100.00;101183.75;5051565;28;20040;-75
2022/12/05 09:11:54;;;;;;;19.25;12.38;;;;;;;1.41;100.00;101185.63;5029321;28;20583;-74
2022/12/05 09:14:32;;;;;;;12.25;7.50;;;;;;;1.46;100.00;101178.94;5066223;28;20044;-74
2022/12/05 09:17:03;;;;;;;13.30;8.55;;;;;;;1.51;100.00;101176.53;5032723;28;20047;-75
2022/12/05 09:19:43;;;;;;;11.23;7.20;;;;;;;1.54;100.00;101177.53;5065820;28;20048;-74
2022/12/05 09:22:10;;;;;;;11.73;7.78;;;;;;;1.56;100.00;101178.47;5049659;28;20040;-74
2022/12/05 09:24:37;;;;;;;8.68;6.82;;;;;;;1.56;100.00;101187.91;5046928;28;21581;-75
2022/12/05 09:27:07;;;;;;;12.05;7.40;;;;;;;1.55;100.00;101183.56;5047857;28;20044;-74
2022/12/05 09:29:34;;;;;;;8.20;5.65;;;;;;;1.54;100.00;101182.69;5050144;28;20044;-74
2022/12/05 09:32:00;;;;;;;11.02;7.22;;;;;;;1.54;100.00;101187.88;5045905;28;20090;-73
2022/12/05 09:34:28;;;;;;;10.23;7.55;;;;;;;1.56;100.00;101178.47;5065689;28;20040;-73
2022/12/05 09:36:56;;;;;;;8.18;6.95;;;;;;;1.59;100.00;101181.16;5044984;28;20048;-75
2022/12/05 09:39:24;;;;;;;11.00;7.07;;;;;;;1.64;100.00;101178.72;5035855;28;20055;-75
2022/12/05 09:42:07;;;;;;;10.07;7.13;;;;;;;1.67;100.00;101183.13;5063336;28;20077;-74
2022/12/05 09:45:03;;;;;;;11.15;7.32;;;;;;;1.74;100.00;101182.53;5067418;28;20048;-75
2022/12/05 09:47:52;;;;;;;8.13;6.85;;;;;;;1.76;100.00;101184.34;5045096;28;20119;-74
2022/12/05 09:50:49;;;;;;;11.20;6.70;;;;;;;1.78;100.00;101177.53;5049625;28;20047;-74
2022/12/05 09:53:30;;;;;;;9.75;7.53;;;;;;;1.80;100.00;101180.19;5043529;28;20083;-74
2022/12/05 09:56:31;;;;;;;10.88;7.28;;;;;;;1.81;100.00;101180.22;5048714;28;20043;-74
2022/12/05 09:59:04;;;;;;;9.45;6.78;;;;;;;1.83;100.00;101177.69;5046873;28;20120;-75
2022/12/05 10:02:00;;;;;;;11.77;6.82;;;;;;;1.89;100.00;101177.03;5045435;28;20071;-76
2022/12/05 10:04:56;;;;;;;12.35;7.78;;;;;;;1.92;100.00;101174.56;5041009;28;20523;-74
2022/12/05 10:07:38;;;;;;;7.13;5.88;;;;;;;1.93;100.00;101177.19;5062128;28;20148;-77
2022/12/05 10:10:36;;;;;;;9.85;6.00;;;;;;;1.92;100.00;101172.00;5068697;28;20138;-72
2022/12/05 10:13:35;;;;;;;7.90;5.68;;;;;;;1.88;100.00;101170.09;5066178;28;20136;-73
2022/12/05 10:16:14;;;;;;;10.20;6.60;;;;;;;1.83;100.00;101167.38;5051646;28;20134;-72
2022/12/05 10:18:54;;;;;;;9.27;5.43;;;;;;;1.85;100.00;101167.41;5064348;28;20040;-74
2022/12/05 10:21:34;;;;;;;8.40;5.63;;;;;;;1.87;100.00;101165.78;5027868;28;20139;-76
2022/12/05 10:24:05;;;;;;;8.98;6.43;;;;;;;1.85;100.00;101162.25;5046923;28;20478;-76
2022/12/05 10:26:43;;;;;;;7.97;5.95;;;;;;;1.85;100.00;101165.69;5050340;28;20049;-75
2022/12/05 10:29:13;;;;;;;7.72;5.93;;;;;;;1.85;100.00;101165.69;5041899;28;20048;-77
2022/12/05 10:31:41;;;;;;;8.93;5.97;;;;;;;1.87;100.00;101166.66;5044622;28;20048;-73
2022/12/05 10:34:30;;;;;;;8.35;5.97;;;;;;;1.88;100.00;101164.94;5041600;28;20044;-74
2022/12/05 10:37:14;;;;;;;8.95;5.90;;;;;;;1.93;100.00;101165.97;5045538;28;20772;-73
2022/12/05 10:39:40;;;;;;;7.80;5.00;;;;;;;1.96;100.00;101166.09;5058361;28;20130;-75
2022/12/05 10:42:34;;;;;;;6.20;5.60;;;;;;;1.96;100.00;101161.81;5046733;28;20048;-73
2022/12/05 10:45:05;;;;;;;8.77;6.13;;;;;;;1.96;100.00;101163.50;5049257;28;20058;-73
2022/12/05 10:47:33;;;;;;;7.13;5.25;;;;;;;1.96;100.00;101166.09;5068387;28;20048;-77
2022/12/05 10:50:16;;;;;;;6.97;4.88;;;;;;;1.97;100.00;101163.56;5070036;28;20037;-76
2022/12/05 10:52:44;;;;;;;8.30;5.13;;;;;;;1.99;100.00;101166.19;5047879;28;20046;-73
2022/12/05 10:55:16;;;;;;;7.93;5.00;;;;;;;1.99;100.00;101161.03;5050964;28;20048;-72
2022/12/05 10:57:43;;;;;;;7.82;5.15;;;;;;;2.00;100.00;101154.19;5048644;28;20051;-75
2022/12/05 11:00:16;;;;;;;7.20;5.00;;;;;;;1.98;100.00;101156.69;5032030;28;20045;-74
2022/12/05 11:02:43;;;;;;;4.93;4.05;;;;;;;1.96;100.00;101156.63;5064353;28;20067;-72
2022/12/05 11:05:10;;;;;;;7.53;4.82;;;;;;;1.96;100.00;101151.47;5049407;28;20531;-76
2022/12/05 11:07:48;;;;;;;7.22;4.53;;;;;;;1.99;100.00;101148.13;5070640;28;20048;-73
2022/12/05 11:10:34;;;;;;;6.35;4.80;;;;;;;2.01;100.00;101156.81;5049233;28;20055;-74
2022/12/05 11:13:02;;;;;;;4.97;4.47;;;;;;;2.01;100.00;101155.91;5068286;28;20068;-76
2022/12/05 11:15:31;;;;;;;4.55;3.45;;;;;;;1.95;100.00;101149.72;5050715;28;20547;-75
2022/12/05 11:18:18;;;;;;;5.75;4.38;;;;;;;1.98;100.00;101149.84;5070154;28;20932;-75
2022/12/05 11:20:45;;;;;;;6.10;4.00;;;;;;;1.94;100.00;101152.25;5053183;28;20048;-74
2022/12/05 11:23:30;;;;;;;5.75;4.63;;;;;;;1.89;100.00;101148.63;5046083;28;20137;-74
2022/12/05 11:25:58;;;;;;;6.65;5.22;;;;;;;1.87;100.00;101153.75;5047062;28;20118;-74
2022/12/05 11:28:38;;;;;;;5.45;4.07;;;;;;;1.81;100.00;101149.25;5036446;28;20040;-72
2022/12/05 11:31:22;;;;;;;7.15;4.93;;;;;;;1.78;100.00;101148.25;5053054;28;20048;-75
2022/12/05 11:34:10;;;;;;;6.05;4.47;;;;;;;1.76;100.00;101144.72;5050290;28;20086;-75
2022/12/05 11:36:43;;;;;;;7.57;4.85;;;;;;;1.76;100.00;101143.06;5053249;28;20048;-75
2022/12/05 11:39:12;;;;;;;5.68;4.80;;;;;;;1.78;100.00;101145.69;5051503;28;20045;-74
2022/12/05 11:42:30;;;;;;;6.72;4.72;;;;;;;1.85;100.00;101139.03;5051838;28;20760;-74
2022/12/05 11:45:04;;;;;;;6.78;5.13;;;;;;;1.92;100.00;101138.44;5052700;28;20032;-74
2022/12/05 11:48:01;;;;;;;6.53;4.38;;;;;;;1.93;100.00;101135.00;5074178;28;20435;-75
2022/12/05 11:50:50;;;;;;;5.80;5.15;;;;;;;1.96;100.00;101143.72;5059911;28;20509;-72
2022/12/05 11:53:44;;;;;;;8.32;4.72;;;;;;;2.00;100.00;101139.56;5049331;28;20055;-75
2022/12/05 11:56:35;;;;;;;5.57;3.97;;;;;;;2.09;100.00;101139.84;5050186;28;20044;-73
2022/12/05 11:59:36;;;;;;;6.53;5.30;;;;;;;2.14;100.00;101135.72;5066830;28;20504;-75
2022/12/05 12:02:40;;;;;;;8.73;4.90;;;;;;;2.14;100.00;101130.56;5068777;28;20055;-73
2022/12/05 12:05:25;;;;;;;7.60;4.45;;;;;;;2.15;100.00;101134.00;5066662;28;20045;-75